createdAt,value
2023-05-04T00:02:13.205Z,8.80
2023-05-04T00:04:42.646Z,8.80
2023-05-04T00:07:10.605Z,8.90
2023-05-04T00:09:38.476Z,8.80
2023-05-04T00:12:07.038Z,8.70
2023-05-04T00:14:34.840Z,8.60
2023-05-04T00:17:06.317Z,8.60
2023-05-04T00:19:34.467Z,8.60
2023-05-04T00:22:02.927Z,8.50
2023-05-04T00:24:30.788Z,8.50
2023-05-04T00:26:58.554Z,8.40
2023-05-04T00:29:26.341Z,8.40
2023-05-04T00:31:54.314Z,8.30
2023-05-04T00:34:23.607Z,8.40
2023-05-04T00:36:51.464Z,8.40
2023-05-04T00:39:19.509Z,8.40
2023-05-04T00:41:47.308Z,8.30
2023-05-04T00:44:15.190Z,8.30
2023-05-04T00:46:43.137Z,8.20
2023-05-04T00:49:11.395Z,8.10
2023-05-04T00:51:41.071Z,8.10
2023-05-04T00:54:08.938Z,8.00
2023-05-04T00:56:41.042Z,8.00
2023-05-04T00:59:08.864Z,8.00
2023-05-04T01:01:36.698Z,8.00
2023-05-04T01:04:04.824Z,8.00
2023-05-04T01:06:40.723Z,8.00
2023-05-04T01:09:20.072Z,8.10
2023-05-04T01:11:56.260Z,8.10
2023-05-04T01:14:24.480Z,8.10
2023-05-04T01:16:56.231Z,8.10
2023-05-04T01:19:24.281Z,8.10
2023-05-04T01:21:53.407Z,8.20
2023-05-04T01:24:21.435Z,8.20
2023-05-04T01:26:52.954Z,8.10
2023-05-04T01:29:27.083Z,8.10
2023-05-04T01:31:55.600Z,8.00
2023-05-04T01:34:23.756Z,7.90
2023-05-04T01:36:53.453Z,7.80
2023-05-04T01:39:21.947Z,7.70
2023-05-04T01:41:49.876Z,7.70
2023-05-04T01:44:17.838Z,7.80
2023-05-04T01:46:45.760Z,7.70
2023-05-04T01:49:13.660Z,7.60
2023-05-04T01:51:41.424Z,7.60
2023-05-04T01:54:10.544Z,7.60
2023-05-04T01:56:38.380Z,7.60
2023-05-04T01:59:06.524Z,7.70
2023-05-04T02:01:34.373Z,7.60
2023-05-04T02:04:02.316Z,7.60
2023-05-04T02:06:30.134Z,7.40
2023-05-04T02:08:57.967Z,7.40
2023-05-04T02:11:27.061Z,7.50
2023-05-04T02:13:54.823Z,7.40
2023-05-04T02:16:22.657Z,7.40
2023-05-04T02:18:50.430Z,7.40
2023-05-04T02:21:18.390Z,7.30
2023-05-04T02:23:46.171Z,7.40
2023-05-04T02:26:13.927Z,7.40
2023-05-04T02:28:43.085Z,7.50
2023-05-04T02:31:11.005Z,7.50
2023-05-04T02:33:38.798Z,7.40
2023-05-04T02:36:07.239Z,7.40
2023-05-04T02:38:35.068Z,7.40
2023-05-04T02:41:02.994Z,7.40
2023-05-04T02:43:30.836Z,7.30
2023-05-04T02:46:00.085Z,7.20
2023-05-04T02:48:27.950Z,7.20
2023-05-04T02:50:56.371Z,7.20
2023-05-04T02:53:24.166Z,7.30
2023-05-04T02:55:52.007Z,7.10
2023-05-04T02:58:19.818Z,7.00
2023-05-04T03:00:47.690Z,7.10
2023-05-04T03:03:16.840Z,7.10
2023-05-04T03:05:44.581Z,7.20
2023-05-04T03:08:12.447Z,7.20
2023-05-04T03:10:40.200Z,7.10
2023-05-04T03:13:08.128Z,7.10
2023-05-04T03:15:36.274Z,7.20
2023-05-04T03:18:04.201Z,7.20
2023-05-04T03:20:33.354Z,7.10
2023-05-04T03:23:01.183Z,7.00
2023-05-04T03:25:28.995Z,7.00
2023-05-04T03:27:57.305Z,7.10
2023-05-04T03:30:25.312Z,7.10
2023-05-04T03:32:53.158Z,7.20
2023-05-04T03:35:24.879Z,7.20
2023-05-04T03:37:54.442Z,7.20
2023-05-04T03:40:24.220Z,7.20
2023-05-04T03:42:52.607Z,7.10
2023-05-04T03:45:21.993Z,7.10
2023-05-04T03:47:49.952Z,7.20
2023-05-04T03:50:17.789Z,7.10
2023-05-04T03:52:45.736Z,7.10
2023-05-04T03:55:14.876Z,7.00
2023-05-04T03:57:42.696Z,7.00
2023-05-04T04:00:11.824Z,7.00
2023-05-04T04:02:39.733Z,7.00
2023-05-04T04:05:09.319Z,7.00
2023-05-04T04:07:37.186Z,7.00
2023-05-04T04:10:05.712Z,7.10
2023-05-04T04:12:35.518Z,7.10
2023-05-04T04:15:03.619Z,7.20
2023-05-04T04:17:31.492Z,7.30
2023-05-04T04:19:59.284Z,7.30
2023-05-04T04:22:27.371Z,7.40
2023-05-04T04:24:55.378Z,7.40
2023-05-04T04:27:23.268Z,7.50
2023-05-04T04:29:52.482Z,7.50
2023-05-04T04:32:21.095Z,7.60
2023-05-04T04:34:48.922Z,7.60
2023-05-04T04:37:16.753Z,7.80
2023-05-04T04:39:44.580Z,7.90
2023-05-04T04:42:13.362Z,7.90
2023-05-04T04:44:41.198Z,8.00
2023-05-04T04:47:10.590Z,8.10
2023-05-04T04:49:38.374Z,8.20
2023-05-04T04:52:06.800Z,8.30
2023-05-04T04:54:34.672Z,8.30
2023-05-04T04:57:03.935Z,8.30
2023-05-04T04:59:31.957Z,8.30
2023-05-04T05:02:00.441Z,8.40
2023-05-04T05:04:29.743Z,8.60
2023-05-04T05:06:58.785Z,8.70
2023-05-04T05:09:26.675Z,8.80
2023-05-04T05:11:54.443Z,8.90
2023-05-04T05:14:22.214Z,9.00
2023-05-04T05:16:50.105Z,9.20
2023-05-04T05:19:17.903Z,9.20
2023-05-04T05:21:47.678Z,9.30
2023-05-04T05:24:16.445Z,9.50
2023-05-04T05:26:44.246Z,9.60
2023-05-04T05:29:12.050Z,9.70
2023-05-04T05:31:39.827Z,9.60
2023-05-04T05:34:07.604Z,9.80
2023-05-04T05:36:35.665Z,9.90
2023-05-04T05:39:05.148Z,10.00
2023-05-04T05:41:32.936Z,10.00
2023-05-04T05:44:00.975Z,10.10
2023-05-04T05:46:28.933Z,10.10
2023-05-04T05:48:57.149Z,10.10
2023-05-04T05:51:25.241Z,10.10
2023-05-04T05:53:53.032Z,10.20
2023-05-04T05:56:22.564Z,10.30
2023-05-04T05:58:52.567Z,10.40
2023-05-04T06:01:20.473Z,10.50
2023-05-04T06:03:48.337Z,10.50
2023-05-04T06:06:17.189Z,10.50
2023-05-04T06:08:44.963Z,10.50
2023-05-04T06:11:12.744Z,10.60
2023-05-04T06:13:41.873Z,10.60
2023-05-04T06:16:09.673Z,10.80
2023-05-04T06:18:37.467Z,10.90
2023-05-04T06:21:05.524Z,11.10
2023-05-04T06:23:33.328Z,11.00
2023-05-04T06:26:01.180Z,11.20
2023-05-04T06:28:29.008Z,11.20
2023-05-04T06:30:58.127Z,11.20
2023-05-04T06:33:26.743Z,11.40
2023-05-04T06:35:54.807Z,11.50
2023-05-04T06:38:22.836Z,11.60
2023-05-04T06:40:51.029Z,11.60
2023-05-04T06:43:19.246Z,11.60
2023-05-04T06:45:47.101Z,11.50
2023-05-04T06:48:16.980Z,11.80
2023-05-04T06:50:45.250Z,11.90
2023-05-04T06:53:13.207Z,12.00
2023-05-04T06:55:40.968Z,12.00
2023-05-04T06:58:08.848Z,12.20
2023-05-04T07:00:37.118Z,12.30
2023-05-04T07:03:05.031Z,12.10
2023-05-04T07:05:35.653Z,12.20
2023-05-04T07:08:03.535Z,12.40
2023-05-04T07:10:31.785Z,12.40
2023-05-04T07:12:59.800Z,12.60
2023-05-04T07:15:27.606Z,12.80
2023-05-04T07:17:55.430Z,12.80
2023-05-04T07:20:25.853Z,12.80
2023-05-04T07:22:56.864Z,13.00
2023-05-04T07:25:25.401Z,13.10
2023-05-04T07:27:53.536Z,13.30
2023-05-04T07:30:22.246Z,13.50
2023-05-04T07:32:50.225Z,13.70
2023-05-04T07:35:18.019Z,13.60
2023-05-04T07:37:46.306Z,13.70
2023-05-04T07:40:16.042Z,13.90
2023-05-04T07:42:43.862Z,13.90
2023-05-04T07:45:11.996Z,13.90
2023-05-04T07:47:39.956Z,13.90
2023-05-04T07:50:09.186Z,14.10
2023-05-04T07:52:37.084Z,13.90
2023-05-04T07:55:05.437Z,14.10
2023-05-04T07:57:35.699Z,14.40
2023-05-04T08:00:04.765Z,14.40
2023-05-04T08:02:32.871Z,14.50
2023-05-04T08:05:00.731Z,14.60
2023-05-04T08:07:28.513Z,14.70
2023-05-04T08:09:56.922Z,14.80
2023-05-04T08:12:26.843Z,14.90
2023-05-04T08:14:56.013Z,14.90
2023-05-04T08:17:23.914Z,14.90
2023-05-04T08:19:51.825Z,14.90
2023-05-04T08:22:19.738Z,15.00
2023-05-04T08:24:48.270Z,14.90
2023-05-04T08:27:16.265Z,15.10
2023-05-04T08:29:44.084Z,15.10
2023-05-04T08:32:13.340Z,15.30
2023-05-04T08:34:41.242Z,15.50
2023-05-04T08:37:09.037Z,15.50
2023-05-04T08:39:38.012Z,15.60
2023-05-04T08:42:07.256Z,15.60
2023-05-04T08:44:36.078Z,15.90
2023-05-04T08:47:04.744Z,16.00
2023-05-04T08:49:34.041Z,16.10
2023-05-04T08:52:01.988Z,16.30
2023-05-04T08:54:30.752Z,16.30
2023-05-04T08:56:59.109Z,16.50
2023-05-04T08:59:30.061Z,16.40
2023-05-04T09:01:59.710Z,16.50
2023-05-04T09:04:29.223Z,16.40
2023-05-04T09:06:58.843Z,16.60
2023-05-04T09:09:28.592Z,16.70
2023-05-04T09:11:56.626Z,16.90
2023-05-04T09:14:33.874Z,16.80
2023-05-04T09:17:01.874Z,16.90
2023-05-04T09:19:33.625Z,16.90
2023-05-04T09:22:03.377Z,16.90
2023-05-04T09:24:31.475Z,17.00
2023-05-04T09:27:10.496Z,17.00
2023-05-04T09:29:39.713Z,17.10
2023-05-04T09:32:12.281Z,17.20
2023-05-04T09:34:48.595Z,17.40
2023-05-04T09:37:18.429Z,17.40
2023-05-04T09:39:56.283Z,17.40
2023-05-04T09:42:25.022Z,17.40
2023-05-04T09:45:03.486Z,17.40
2023-05-04T09:47:39.361Z,17.60
2023-05-04T09:50:17.550Z,17.80
2023-05-04T09:52:49.355Z,17.90
2023-05-04T09:55:18.486Z,18.00
2023-05-04T09:57:47.550Z,18.10
2023-05-04T10:00:17.441Z,18.00
2023-05-04T10:02:46.271Z,17.90
2023-05-04T10:05:16.991Z,18.10
2023-05-04T10:07:45.519Z,18.00
2023-05-04T10:10:16.443Z,18.10
2023-05-04T10:12:45.820Z,18.00
2023-05-04T10:15:15.721Z,18.10
2023-05-04T10:17:54.758Z,18.10
2023-05-04T10:20:44.014Z,18.20
2023-05-04T10:23:36.194Z,18.30
2023-05-04T10:26:33.191Z,18.50
2023-05-04T10:29:13.330Z,18.40
2023-05-04T10:31:42.061Z,18.60
2023-05-04T10:34:11.103Z,18.50
2023-05-04T10:36:39.678Z,18.70
2023-05-04T10:39:19.097Z,18.70
2023-05-04T10:42:00.077Z,18.70
2023-05-04T10:44:29.422Z,18.80
2023-05-04T10:47:01.881Z,18.90
2023-05-04T10:49:30.639Z,18.70
2023-05-04T10:52:09.474Z,18.80
2023-05-04T10:54:37.825Z,18.70
2023-05-04T10:57:09.015Z,18.80
2023-05-04T10:59:37.792Z,18.70
2023-05-04T11:02:06.663Z,18.90
2023-05-04T11:04:35.484Z,18.80
2023-05-04T11:07:05.024Z,18.70
2023-05-04T11:09:37.864Z,18.90
2023-05-04T11:12:10.275Z,19.10
2023-05-04T11:14:42.765Z,19.10
2023-05-04T11:19:49.622Z,19.10
2023-05-04T11:22:17.473Z,19.20
2023-05-04T11:24:48.415Z,19.30
2023-05-04T11:27:24.823Z,19.20
2023-05-04T11:29:56.666Z,19.20
2023-05-04T11:32:33.918Z,19.30
2023-05-04T11:35:02.126Z,19.40
2023-05-04T11:37:30.195Z,19.30
2023-05-04T11:39:59.039Z,19.40
2023-05-04T11:42:28.348Z,19.40
2023-05-04T11:44:56.870Z,19.60
2023-05-04T11:47:26.299Z,19.70
2023-05-04T11:49:54.281Z,19.60
2023-05-04T11:52:23.832Z,19.60
2023-05-04T11:54:57.101Z,19.20
2023-05-04T11:57:24.996Z,19.30
2023-05-04T11:59:54.174Z,19.40
2023-05-04T12:02:22.102Z,19.40
2023-05-04T12:04:49.981Z,19.60
2023-05-04T12:07:17.832Z,19.70
2023-05-04T12:09:46.699Z,19.70
2023-05-04T12:12:15.544Z,19.60
2023-05-04T12:14:50.856Z,19.60
2023-05-04T12:17:20.423Z,19.70
2023-05-04T12:19:49.426Z,19.70
2023-05-04T12:22:17.920Z,19.80
2023-05-04T12:24:46.911Z,19.90
2023-05-04T12:27:16.454Z,20.00
2023-05-04T12:29:44.603Z,19.90
2023-05-04T12:32:12.966Z,20.00
2023-05-04T12:34:42.281Z,20.20
2023-05-04T12:37:10.794Z,20.00
2023-05-04T12:39:39.406Z,20.00
2023-05-04T12:42:07.335Z,20.10
2023-05-04T12:44:35.759Z,20.20
2023-05-04T12:47:03.952Z,20.30
2023-05-04T12:49:31.790Z,20.30
2023-05-04T12:52:00.991Z,20.40
2023-05-04T12:54:28.879Z,20.60
2023-05-04T12:56:57.833Z,20.60
2023-05-04T12:59:26.928Z,20.50
2023-05-04T13:01:54.805Z,20.30
2023-05-04T13:04:22.609Z,20.50
2023-05-04T13:06:50.614Z,20.70
2023-05-04T13:09:20.607Z,20.70
2023-05-04T13:11:48.681Z,20.60
2023-05-04T13:14:16.466Z,20.60
2023-05-04T13:16:44.299Z,20.60
2023-05-04T13:19:12.380Z,20.70
2023-05-04T13:21:40.261Z,20.90
2023-05-04T13:24:08.408Z,20.90
2023-05-04T13:26:37.593Z,20.90
2023-05-04T13:29:05.460Z,20.60
2023-05-04T13:31:33.608Z,20.60
2023-05-04T13:34:01.467Z,20.60
2023-05-04T13:36:29.314Z,20.70
2023-05-04T13:38:57.076Z,20.60
2023-05-04T13:41:24.916Z,20.70
2023-05-04T13:43:54.490Z,20.90
2023-05-04T13:46:23.292Z,20.90
2023-05-04T13:48:51.163Z,20.60
2023-05-04T13:51:19.721Z,20.70
2023-05-04T13:53:47.481Z,20.70
2023-05-04T13:56:15.896Z,20.60
2023-05-04T13:58:44.295Z,20.60
2023-05-04T14:01:13.860Z,20.60
2023-05-04T14:03:41.903Z,20.30
2023-05-04T14:06:09.732Z,20.20
2023-05-04T14:08:37.665Z,20.20
2023-05-04T14:11:05.591Z,20.20
2023-05-04T14:13:33.352Z,20.40
2023-05-04T14:16:01.117Z,20.20
2023-05-04T14:18:31.910Z,20.30
2023-05-04T14:21:00.035Z,20.10
2023-05-04T14:23:28.685Z,20.00
2023-05-04T14:25:56.966Z,19.90
2023-05-04T14:28:24.841Z,19.80
2023-05-04T14:30:52.603Z,19.70
2023-05-04T14:33:20.815Z,19.80
2023-05-04T14:35:50.262Z,19.70
2023-05-04T14:38:18.219Z,19.80
2023-05-04T14:40:48.379Z,19.80
2023-05-04T14:43:17.242Z,19.80
2023-05-04T14:45:45.004Z,19.90
2023-05-04T14:48:12.917Z,19.90
2023-05-04T14:50:41.473Z,20.00
2023-05-04T14:53:10.726Z,19.90
2023-05-04T14:55:41.768Z,20.00
2023-05-04T14:58:10.173Z,20.00
2023-05-04T15:00:38.752Z,20.00
2023-05-04T15:03:07.599Z,20.00
2023-05-04T15:05:35.532Z,20.10
2023-05-04T15:08:03.420Z,20.20
2023-05-04T15:10:32.570Z,20.20
2023-05-04T15:13:03.090Z,20.30
2023-05-04T15:15:30.863Z,20.30
2023-05-04T15:17:58.705Z,20.20
2023-05-04T15:20:26.732Z,20.20
2023-05-04T15:22:54.481Z,20.10
2023-05-04T15:25:25.195Z,20.20
2023-05-04T15:27:54.424Z,20.10
2023-05-04T15:30:23.332Z,20.10
2023-05-04T15:32:51.508Z,20.30
2023-05-04T15:35:19.503Z,20.20
2023-05-04T15:37:47.313Z,20.30
2023-05-04T15:40:15.763Z,20.30
2023-05-04T15:42:43.558Z,20.20
2023-05-04T15:45:12.732Z,20.10
2023-05-04T15:47:40.632Z,20.10
2023-05-04T15:50:09.190Z,20.20
2023-05-04T15:52:37.664Z,20.20
2023-05-04T15:55:22.717Z,20.20
2023-05-04T15:57:53.681Z,20.10
2023-05-04T16:00:23.585Z,20.00
2023-05-04T16:02:51.730Z,20.10
2023-05-04T16:05:20.229Z,20.20
2023-05-04T16:07:48.664Z,20.30
2023-05-04T16:10:16.555Z,20.40
2023-05-04T16:12:44.421Z,20.40
2023-05-04T16:15:12.991Z,20.20
2023-05-04T16:17:42.155Z,20.20
2023-05-04T16:20:10.943Z,20.10
2023-05-04T16:22:38.891Z,20.20
2023-05-04T16:25:08.936Z,20.30
2023-05-04T16:27:38.779Z,20.20
2023-05-04T16:30:07.920Z,20.10
2023-05-04T16:32:36.104Z,20.10
2023-05-04T16:35:05.939Z,20.00
2023-05-04T16:37:36.158Z,20.00
2023-05-04T16:40:10.794Z,19.90
2023-05-04T16:42:38.684Z,19.70
2023-05-04T16:45:07.549Z,19.80
2023-05-04T16:47:35.741Z,19.70
2023-05-04T16:50:05.871Z,19.70
2023-05-04T16:52:33.954Z,19.50
2023-05-04T16:55:01.790Z,19.40
2023-05-04T16:57:29.585Z,19.30
2023-05-04T16:59:57.343Z,19.30
2023-05-04T17:02:25.724Z,19.40
2023-05-04T17:04:54.109Z,19.40
2023-05-04T17:07:23.244Z,19.50
2023-05-04T17:09:51.077Z,19.60
2023-05-04T17:12:19.660Z,19.60
2023-05-04T17:14:47.439Z,19.40
2023-05-04T17:17:16.121Z,19.30
2023-05-04T17:19:43.956Z,19.10
2023-05-04T17:22:12.177Z,19.00
2023-05-04T17:24:42.877Z,18.90
2023-05-04T17:27:11.881Z,18.80
2023-05-04T17:29:40.903Z,18.70
2023-05-04T17:32:09.076Z,18.60
2023-05-04T17:34:37.089Z,18.50
2023-05-04T17:37:04.983Z,18.40
2023-05-04T17:39:32.757Z,18.30
2023-05-04T17:42:01.922Z,18.20
2023-05-04T17:44:29.985Z,18.10
2023-05-04T17:46:57.779Z,18.00
2023-05-04T17:49:25.601Z,17.90
2023-05-04T17:51:53.403Z,17.80
2023-05-04T17:54:21.149Z,17.70
2023-05-04T17:56:48.933Z,17.60
2023-05-04T17:59:18.129Z,17.50
2023-05-04T18:01:46.960Z,17.50
2023-05-04T18:04:15.191Z,17.40
2023-05-04T18:06:43.535Z,17.30
2023-05-04T18:09:11.664Z,17.30
2023-05-04T18:11:39.438Z,17.20
2023-05-04T18:14:07.245Z,17.10
2023-05-04T18:16:37.688Z,16.90
2023-05-04T18:19:06.345Z,16.80
2023-05-04T18:21:36.743Z,16.70
2023-05-04T18:24:04.837Z,16.50
2023-05-04T18:26:32.713Z,16.40
2023-05-04T18:29:11.255Z,16.30
2023-05-04T18:31:47.400Z,16.20
2023-05-04T18:34:15.638Z,16.10
2023-05-04T18:36:43.457Z,16.00
2023-05-04T18:39:11.700Z,15.90
2023-05-04T18:41:40.383Z,15.80
2023-05-04T18:44:09.891Z,15.80
2023-05-04T18:46:37.730Z,15.60
2023-05-04T18:49:06.964Z,15.50
2023-05-04T18:51:34.746Z,15.40
2023-05-04T18:54:02.499Z,15.40
2023-05-04T18:56:30.836Z,15.40
2023-05-04T18:58:58.588Z,15.30
2023-05-04T19:01:27.691Z,15.30
2023-05-04T19:03:55.786Z,15.20
2023-05-04T19:06:24.980Z,15.10
2023-05-04T19:08:52.955Z,15.00
2023-05-04T19:11:21.552Z,15.00
2023-05-04T19:13:50.057Z,14.90
2023-05-04T19:16:18.013Z,14.80
2023-05-04T19:18:46.084Z,14.70
2023-05-04T19:21:14.031Z,14.70
2023-05-04T19:23:43.130Z,14.70
2023-05-04T19:26:10.967Z,14.60
2023-05-04T19:28:39.876Z,14.60
2023-05-04T19:31:08.195Z,14.50
2023-05-04T19:33:48.027Z,14.60
2023-05-04T19:36:16.785Z,14.50
2023-05-04T19:38:46.004Z,14.50
2023-05-04T19:41:14.260Z,14.50
2023-05-04T19:43:42.558Z,14.40
2023-05-04T19:46:10.473Z,14.40
2023-05-04T19:48:39.700Z,14.30
2023-05-04T19:51:07.909Z,14.20
2023-05-04T19:53:35.767Z,14.20
2023-05-04T19:56:05.106Z,14.20
2023-05-04T19:58:32.882Z,14.20
2023-05-04T20:01:00.764Z,14.10
2023-05-04T20:03:28.765Z,14.10
2023-05-04T20:05:56.663Z,14.00
2023-05-04T20:08:24.510Z,13.90
2023-05-04T20:10:52.369Z,13.80
2023-05-04T20:13:21.529Z,13.70
2023-05-04T20:15:49.498Z,13.80
2023-05-04T20:18:17.243Z,13.70
2023-05-04T20:20:45.031Z,13.70
2023-05-04T20:23:13.049Z,13.60
2023-05-04T20:25:41.108Z,13.60
2023-05-04T20:28:08.901Z,13.60
2023-05-04T20:30:38.127Z,13.50
2023-05-04T20:33:06.043Z,13.50
2023-05-04T20:35:33.997Z,13.50
2023-05-04T20:38:02.447Z,13.30
2023-05-04T20:40:30.259Z,13.30
2023-05-04T20:42:58.076Z,13.20
2023-05-04T20:45:26.085Z,13.20
2023-05-04T20:47:55.350Z,13.20
2023-05-04T20:50:23.204Z,13.10
2023-05-04T20:52:51.087Z,13.00
2023-05-04T20:55:18.994Z,13.00
2023-05-04T20:57:46.851Z,13.00
2023-05-04T21:00:16.058Z,12.90
2023-05-04T21:02:43.888Z,12.80
2023-05-04T21:05:13.353Z,12.70
2023-05-04T21:07:41.529Z,12.70
2023-05-04T21:10:10.421Z,12.70
2023-05-04T21:12:38.354Z,12.60
2023-05-04T21:15:06.899Z,12.50
2023-05-04T21:17:34.733Z,12.60
2023-05-04T21:20:03.041Z,12.60
2023-05-04T21:22:32.268Z,12.50
2023-05-04T21:25:00.211Z,12.40
2023-05-04T21:27:27.959Z,12.40
2023-05-04T21:29:55.754Z,12.30
2023-05-04T21:32:23.565Z,12.20
2023-05-04T21:34:53.328Z,12.10
2023-05-04T21:37:21.476Z,12.00
2023-05-04T21:39:54.171Z,12.00
2023-05-04T21:42:21.987Z,12.10
2023-05-04T21:44:54.564Z,12.00
2023-05-04T21:47:22.398Z,12.00
2023-05-04T21:49:51.673Z,11.90
2023-05-04T21:52:19.501Z,11.90
2023-05-04T21:54:47.490Z,11.90
2023-05-04T21:57:16.819Z,11.80
2023-05-04T21:59:44.671Z,11.70
2023-05-04T22:02:12.481Z,11.70
2023-05-04T22:04:43.257Z,11.60
2023-05-04T22:07:11.143Z,11.60
2023-05-04T22:09:39.010Z,11.50
2023-05-04T22:12:07.700Z,11.50
2023-05-04T22:14:36.820Z,11.50
2023-05-04T22:17:05.052Z,11.60
2023-05-04T22:19:33.253Z,11.60
2023-05-04T22:22:01.035Z,11.60
2023-05-04T22:24:28.825Z,11.40
2023-05-04T22:26:56.615Z,11.40
2023-05-04T22:29:24.411Z,11.50
2023-05-04T22:31:53.557Z,11.60
2023-05-04T22:34:21.483Z,11.50
2023-05-04T22:36:49.416Z,11.30
2023-05-04T22:39:17.460Z,11.30
2023-05-04T22:44:24.143Z,11.10
2023-05-04T22:46:53.261Z,11.10
2023-05-04T22:49:21.129Z,11.10
2023-05-04T22:51:48.924Z,11.00
2023-05-04T22:54:16.673Z,10.90
2023-05-04T22:56:44.475Z,11.00
2023-05-04T22:59:12.300Z,11.00
2023-05-04T23:01:43.121Z,11.00
2023-05-04T23:04:12.552Z,11.10
2023-05-04T23:06:40.353Z,11.00
2023-05-04T23:09:08.164Z,11.00
2023-05-04T23:11:36.054Z,10.90
2023-05-04T23:14:03.857Z,10.80
2023-05-04T23:16:32.052Z,11.00
2023-05-04T23:19:00.004Z,10.90
2023-05-04T23:21:29.133Z,11.00
2023-05-04T23:23:57.080Z,11.00
2023-05-04T23:26:25.215Z,11.00
2023-05-04T23:28:53.010Z,10.90
2023-05-04T23:31:20.878Z,10.90
2023-05-04T23:33:48.676Z,10.90
2023-05-04T23:36:16.498Z,10.80
2023-05-04T23:38:45.640Z,10.80
2023-05-04T23:41:13.572Z,10.60
2023-05-04T23:43:41.393Z,10.50
2023-05-04T23:46:09.490Z,10.60
2023-05-04T23:48:37.333Z,10.40
2023-05-04T23:51:05.659Z,10.30
2023-05-04T23:53:35.101Z,10.40
2023-05-04T23:56:06.081Z,10.30
2023-05-04T23:58:34.920Z,10.40
